createdAt,value
2022-12-11T00:01:08.333Z,-0.20
2022-12-11T00:07:10.022Z,-0.20
2022-12-11T00:13:11.640Z,-0.20
2022-12-11T00:19:13.294Z,-0.30
2022-12-11T00:25:15.088Z,-0.20
2022-12-11T00:31:18.000Z,-0.30
2022-12-11T00:37:19.790Z,-0.30
2022-12-11T00:43:21.403Z,-0.20
2022-12-11T00:49:23.136Z,-0.20
2022-12-11T00:55:25.498Z,-0.20
2022-12-11T01:01:27.327Z,-0.20
2022-12-11T01:07:29.016Z,-0.20
2022-12-11T01:13:30.838Z,-0.20
2022-12-11T01:19:33.337Z,-0.30
2022-12-11T01:25:38.125Z,-0.30
2022-12-11T01:31:39.772Z,-0.30
2022-12-11T01:37:41.926Z,-0.30
2022-12-11T01:43:56.694Z,-0.30
2022-12-11T01:49:58.335Z,-0.30
2022-12-11T01:56:00.667Z,-0.40
2022-12-11T02:02:12.046Z,-0.40
2022-12-11T02:08:13.887Z,-0.40
2022-12-11T02:14:48.007Z,-0.30
2022-12-11T02:20:52.437Z,-0.30
2022-12-11T02:27:03.335Z,-0.30
2022-12-11T02:33:05.715Z,-0.40
2022-12-11T02:39:09.297Z,-0.30
2022-12-11T02:45:12.315Z,-0.30
2022-12-11T02:51:16.437Z,-0.30
2022-12-11T02:57:27.413Z,-0.30
2022-12-11T03:03:29.679Z,-0.20
2022-12-11T03:09:31.863Z,-0.10
2022-12-11T03:15:37.156Z,-0.20
2022-12-11T03:21:45.210Z,-0.20
2022-12-11T03:28:19.568Z,-0.20
2022-12-11T03:34:29.156Z,-0.20
2022-12-11T03:40:32.582Z,-0.20
2022-12-11T03:46:36.600Z,-0.10
2022-12-11T03:52:45.533Z,-0.20
2022-12-11T03:58:47.720Z,-0.20
2022-12-11T04:04:49.419Z,-0.20
2022-12-11T04:11:14.240Z,-0.20
2022-12-11T04:17:35.819Z,-0.30
2022-12-11T04:23:56.068Z,-0.30
2022-12-11T04:29:57.787Z,-0.30
2022-12-11T04:36:00.516Z,-0.30
2022-12-11T04:42:02.144Z,-0.30
2022-12-11T04:48:03.827Z,-0.30
2022-12-11T04:54:05.461Z,-0.30
2022-12-11T05:00:08.942Z,-0.30
2022-12-11T05:06:11.113Z,-0.30
2022-12-11T05:12:12.728Z,-0.30
2022-12-11T05:18:14.454Z,-0.40
2022-12-11T05:24:16.323Z,-0.40
2022-12-11T05:30:18.080Z,-0.40
2022-12-11T05:36:27.600Z,-0.30
2022-12-11T05:42:29.380Z,-0.30
2022-12-11T05:48:31.066Z,-0.40
2022-12-11T05:54:32.850Z,-0.30
2022-12-11T06:00:36.207Z,-0.40
2022-12-11T06:06:38.514Z,-0.30
2022-12-11T06:12:40.977Z,-0.30
2022-12-11T06:18:43.630Z,-0.40
2022-12-11T06:24:45.272Z,-0.30
2022-12-11T06:30:46.943Z,-0.30
2022-12-11T06:36:48.586Z,-0.40
2022-12-11T06:42:50.199Z,-0.40
2022-12-11T06:48:51.808Z,-0.30
2022-12-11T06:54:53.624Z,-0.30
2022-12-11T07:00:55.293Z,-0.30
2022-12-11T07:06:57.425Z,-0.20
2022-12-11T07:12:59.038Z,-0.20
2022-12-11T07:19:00.676Z,-0.20
2022-12-11T07:25:02.370Z,-0.20
2022-12-11T07:31:07.677Z,-0.10
2022-12-11T07:37:09.293Z,-0.10
2022-12-11T07:43:10.882Z,-0.20
2022-12-11T07:49:12.477Z,-0.20
2022-12-11T07:55:14.563Z,-0.10
2022-12-11T08:01:18.078Z,-0.10
2022-12-11T08:07:19.823Z,-0.20
2022-12-11T08:13:21.462Z,-0.10
2022-12-11T08:19:23.045Z,-0.10
2022-12-11T08:25:24.648Z,-0.10
2022-12-11T08:31:26.557Z,-0.10
2022-12-11T08:37:29.555Z,-0.10
2022-12-11T08:43:33.212Z,-0.10
2022-12-11T08:49:34.902Z,0.00
2022-12-11T08:55:36.528Z,0.10
2022-12-11T09:01:38.272Z,0.00
2022-12-11T09:07:40.139Z,0.00
2022-12-11T09:13:42.198Z,0.00
2022-12-11T09:19:43.858Z,0.10
2022-12-11T09:25:45.478Z,0.10
2022-12-11T09:31:48.604Z,0.10
2022-12-11T09:37:50.297Z,0.20
2022-12-11T09:44:10.554Z,0.20
2022-12-11T09:50:25.947Z,0.20
2022-12-11T09:56:40.679Z,0.20
2022-12-11T10:02:54.264Z,0.20
2022-12-11T10:09:00.665Z,0.30
2022-12-11T10:15:14.929Z,0.40
2022-12-11T10:21:17.567Z,0.20
2022-12-11T10:27:23.924Z,0.30
2022-12-11T10:33:29.355Z,0.40
2022-12-11T10:39:30.965Z,0.40
2022-12-11T10:45:32.566Z,0.30
2022-12-11T10:51:35.464Z,0.40
2022-12-11T10:57:39.079Z,0.60
2022-12-11T11:04:03.103Z,0.60
2022-12-11T11:10:10.795Z,0.60
2022-12-11T11:16:13.842Z,0.50
2022-12-11T11:22:17.458Z,0.60
2022-12-11T11:28:21.300Z,0.50
2022-12-11T11:34:23.041Z,0.40
2022-12-11T11:40:30.495Z,0.50
2022-12-11T11:46:35.146Z,0.50
2022-12-11T11:52:43.209Z,0.50
2022-12-11T11:59:02.334Z,0.50
2022-12-11T12:05:04.145Z,0.50
2022-12-11T12:11:34.875Z,0.40
2022-12-11T12:17:55.778Z,0.50
2022-12-11T12:23:58.003Z,0.40
2022-12-11T12:30:08.301Z,0.50
2022-12-11T12:36:28.886Z,0.50
2022-12-11T12:42:39.084Z,0.50
2022-12-11T12:48:40.732Z,0.50
2022-12-11T12:55:03.778Z,0.50
2022-12-11T13:01:16.785Z,0.40
2022-12-11T13:07:27.060Z,0.30
2022-12-11T13:13:34.041Z,0.40
2022-12-11T13:19:42.101Z,0.40
2022-12-11T13:25:47.201Z,0.40
2022-12-11T13:31:56.405Z,0.40
2022-12-11T13:38:14.117Z,0.30
2022-12-11T13:44:18.452Z,0.30
2022-12-11T13:50:30.485Z,0.30
2022-12-11T13:56:32.184Z,0.20
2022-12-11T14:02:39.048Z,0.10
2022-12-11T14:08:42.794Z,0.20
2022-12-11T14:14:46.871Z,0.20
2022-12-11T14:20:53.809Z,0.10
2022-12-11T14:26:55.930Z,0.10
2022-12-11T14:32:59.006Z,0.10
2022-12-11T14:39:03.006Z,0.00
2022-12-11T14:45:12.649Z,0.10
2022-12-11T14:51:16.021Z,0.00
2022-12-11T14:57:20.196Z,-0.10
2022-12-11T15:03:23.198Z,-0.10
2022-12-11T15:09:33.946Z,-0.10
2022-12-11T15:15:46.175Z,-0.10
2022-12-11T15:21:48.121Z,-0.10
2022-12-11T15:27:54.180Z,-0.20
2022-12-11T15:33:56.016Z,-0.20
2022-12-11T15:39:58.632Z,-0.20
2022-12-11T15:46:01.375Z,-0.20
2022-12-11T15:52:03.286Z,-0.20
2022-12-11T15:58:07.068Z,-0.20
2022-12-11T16:04:08.749Z,-0.30
2022-12-11T16:10:14.473Z,-0.30
2022-12-11T16:16:16.222Z,-0.30
2022-12-11T16:22:17.899Z,-0.20
2022-12-11T16:28:21.178Z,-0.20
2022-12-11T16:34:26.391Z,-0.20
2022-12-11T16:40:28.061Z,-0.20
2022-12-11T16:46:29.786Z,-0.30
2022-12-11T16:52:31.953Z,-0.30
2022-12-11T16:58:33.580Z,-0.20
2022-12-11T17:04:35.325Z,-0.30
2022-12-11T17:10:41.048Z,-0.30
2022-12-11T17:16:42.671Z,-0.30
2022-12-11T17:22:46.081Z,-0.30
2022-12-11T17:28:47.817Z,-0.30
2022-12-11T17:34:50.511Z,-0.20
2022-12-11T17:40:52.234Z,-0.20
2022-12-11T17:46:53.923Z,-0.30
2022-12-11T17:52:55.615Z,-0.30
2022-12-11T17:58:57.999Z,-0.20
2022-12-11T18:04:59.637Z,-0.30
2022-12-11T18:11:12.046Z,-0.30
2022-12-11T18:17:13.725Z,-0.30
2022-12-11T18:23:15.401Z,-0.30
2022-12-11T18:29:17.450Z,-0.20
2022-12-11T18:35:19.523Z,-0.20
2022-12-11T18:41:21.174Z,-0.30
2022-12-11T18:47:22.835Z,-0.30
2022-12-11T18:53:24.459Z,-0.30
2022-12-11T18:59:26.459Z,-0.40
2022-12-11T19:05:28.757Z,-0.30
2022-12-11T19:11:31.576Z,-0.40
2022-12-11T19:17:33.341Z,-0.30
2022-12-11T19:23:35.142Z,-0.30
2022-12-11T19:29:36.799Z,-0.40
2022-12-11T19:35:38.590Z,-0.40
2022-12-11T19:41:40.624Z,-0.40
2022-12-11T19:47:42.351Z,-0.30
2022-12-11T19:53:45.207Z,-0.30
2022-12-11T19:59:50.264Z,-0.50
2022-12-11T20:06:04.867Z,-0.50
2022-12-11T20:12:10.209Z,-0.50
2022-12-11T20:18:18.278Z,-0.50
2022-12-11T20:24:20.332Z,-0.40
2022-12-11T20:30:25.906Z,-0.40
2022-12-11T20:36:27.546Z,-0.50
2022-12-11T20:42:29.150Z,-0.50
2022-12-11T20:48:30.750Z,-0.50
2022-12-11T20:54:32.456Z,-0.60
2022-12-11T21:00:35.530Z,-0.60
2022-12-11T21:06:38.682Z,-0.60
2022-12-11T21:12:40.264Z,-0.60
2022-12-11T21:18:44.156Z,-0.60
2022-12-11T21:24:46.027Z,-0.50
2022-12-11T21:30:47.651Z,-0.70
2022-12-11T21:36:49.434Z,-0.60
2022-12-11T21:42:51.116Z,-0.70
2022-12-11T21:48:53.002Z,-0.90
2022-12-11T21:54:54.615Z,-0.90
2022-12-11T22:00:58.033Z,-0.90
2022-12-11T22:06:59.826Z,-1.00
2022-12-11T22:13:01.526Z,-1.00
2022-12-11T22:19:03.345Z,-1.00
2022-12-11T22:25:07.835Z,-1.00
2022-12-11T22:31:11.132Z,-1.10
2022-12-11T22:37:12.815Z,-1.20
2022-12-11T22:43:14.404Z,-1.20
2022-12-11T22:49:16.091Z,-1.10
2022-12-11T22:55:17.745Z,-1.10
2022-12-11T23:01:21.899Z,-1.10
2022-12-11T23:07:23.587Z,-1.20
2022-12-11T23:13:25.333Z,-1.30
2022-12-11T23:19:26.988Z,-1.30
2022-12-11T23:25:28.704Z,-1.50
2022-12-11T23:31:30.479Z,-1.60
2022-12-11T23:37:32.296Z,-1.60
2022-12-11T23:43:34.684Z,-1.60
2022-12-11T23:49:36.348Z,-1.70
2022-12-11T23:55:39.431Z,-1.80
